sensor_id;sensor_type;location;lat;lon;timestamp;P1;durP1;ratioP1;P2;durP2;ratioP2
6485;SDS011;3276;48.490;9.222;2024-03-06T00:00:27;6.43;;;4.80;;
6485;SDS011;3276;48.490;9.222;2024-03-06T00:02:53;6.50;;;5.27;;
6485;SDS011;3276;48.490;9.222;2024-03-06T00:05:20;6.27;;;4.87;;
6485;SDS011;3276;48.490;9.222;2024-03-06T00:07:45;5.93;;;4.60;;
6485;SDS011;3276;48.490;9.222;2024-03-06T00:10:11;7.53;;;5.10;;
6485;SDS011;3276;48.490;9.222;2024-03-06T00:12:36;5.67;;;4.37;;
6485;SDS011;3276;48.490;9.222;2024-03-06T00:15:02;8.53;;;5.23;;
6485;SDS011;3276;48.490;9.222;2024-03-06T00:17:28;8.90;;;4.87;;
6485;SDS011;3276;48.490;9.222;2024-03-06T00:19:53;6.10;;;3.83;;
6485;SDS011;3276;48.490;9.222;2024-03-06T00:22:19;5.53;;;4.47;;
6485;SDS011;3276;48.490;9.222;2024-03-06T00:24:45;8.67;;;5.90;;
6485;SDS011;3276;48.490;9.222;2024-03-06T00:27:12;7.63;;;5.57;;
6485;SDS011;3276;48.490;9.222;2024-03-06T00:29:38;7.80;;;5.10;;
6485;SDS011;3276;48.490;9.222;2024-03-06T00:32:04;8.00;;;5.63;;
6485;SDS011;3276;48.490;9.222;2024-03-06T00:34:30;10.03;;;6.00;;
6485;SDS011;3276;48.490;9.222;2024-03-06T00:36:55;6.83;;;5.73;;
6485;SDS011;3276;48.490;9.222;2024-03-06T00:39:21;6.77;;;5.57;;
6485;SDS011;3276;48.490;9.222;2024-03-06T00:41:46;6.70;;;4.30;;
6485;SDS011;3276;48.490;9.222;2024-03-06T00:44:12;6.40;;;5.10;;
6485;SDS011;3276;48.490;9.222;2024-03-06T00:46:38;5.40;;;4.90;;
6485;SDS011;3276;48.490;9.222;2024-03-06T00:49:04;14.30;;;4.80;;
6485;SDS011;3276;48.490;9.222;2024-03-06T00:51:29;9.43;;;4.90;;
6485;SDS011;3276;48.490;9.222;2024-03-06T00:53:56;7.33;;;4.80;;
6485;SDS011;3276;48.490;9.222;2024-03-06T00:56:22;4.80;;;4.03;;
6485;SDS011;3276;48.490;9.222;2024-03-06T00:58:47;6.63;;;5.10;;
6485;SDS011;3276;48.490;9.222;2024-03-06T01:01:13;5.80;;;5.13;;
6485;SDS011;3276;48.490;9.222;2024-03-06T01:03:40;8.10;;;5.53;;
6485;SDS011;3276;48.490;9.222;2024-03-06T01:06:05;5.50;;;4.40;;
6485;SDS011;3276;48.490;9.222;2024-03-06T01:08:31;7.53;;;5.60;;
6485;SDS011;3276;48.490;9.222;2024-03-06T01:10:56;9.30;;;5.57;;
6485;SDS011;3276;48.490;9.222;2024-03-06T01:13:23;6.80;;;4.67;;
6485;SDS011;3276;48.490;9.222;2024-03-06T01:15:49;8.00;;;5.40;;
6485;SDS011;3276;48.490;9.222;2024-03-06T01:18:14;7.77;;;4.53;;
6485;SDS011;3276;48.490;9.222;2024-03-06T01:20:40;6.27;;;4.43;;
6485;SDS011;3276;48.490;9.222;2024-03-06T01:23:05;6.47;;;5.03;;
6485;SDS011;3276;48.490;9.222;2024-03-06T01:25:31;9.40;;;4.33;;
6485;SDS011;3276;48.490;9.222;2024-03-06T01:27:57;11.33;;;4.73;;
6485;SDS011;3276;48.490;9.222;2024-03-06T01:30:22;6.70;;;4.33;;
6485;SDS011;3276;48.490;9.222;2024-03-06T01:32:48;4.93;;;3.70;;
6485;SDS011;3276;48.490;9.222;2024-03-06T01:35:14;6.90;;;5.00;;
6485;SDS011;3276;48.490;9.222;2024-03-06T01:37:39;5.80;;;5.10;;
6485;SDS011;3276;48.490;9.222;2024-03-06T01:40:05;4.90;;;4.40;;
6485;SDS011;3276;48.490;9.222;2024-03-06T01:42:32;5.13;;;4.37;;
6485;SDS011;3276;48.490;9.222;2024-03-06T01:44:58;6.63;;;4.77;;
6485;SDS011;3276;48.490;9.222;2024-03-06T01:47:27;6.73;;;4.20;;
6485;SDS011;3276;48.490;9.222;2024-03-06T01:49:53;6.80;;;4.53;;
6485;SDS011;3276;48.490;9.222;2024-03-06T01:52:19;6.03;;;4.90;;
6485;SDS011;3276;48.490;9.222;2024-03-06T01:54:47;4.50;;;4.10;;
6485;SDS011;3276;48.490;9.222;2024-03-06T01:57:15;5.67;;;4.43;;
6485;SDS011;3276;48.490;9.222;2024-03-06T01:59:42;6.93;;;5.60;;
6485;SDS011;3276;48.490;9.222;2024-03-06T02:02:08;9.23;;;5.90;;
6485;SDS011;3276;48.490;9.222;2024-03-06T02:04:36;7.60;;;5.20;;
6485;SDS011;3276;48.490;9.222;2024-03-06T02:07:03;6.50;;;5.10;;
6485;SDS011;3276;48.490;9.222;2024-03-06T02:09:30;6.80;;;4.30;;
6485;SDS011;3276;48.490;9.222;2024-03-06T02:11:55;8.70;;;5.30;;
6485;SDS011;3276;48.490;9.222;2024-03-06T02:14:21;6.50;;;5.20;;
6485;SDS011;3276;48.490;9.222;2024-03-06T02:16:48;5.47;;;4.27;;
6485;SDS011;3276;48.490;9.222;2024-03-06T02:19:13;5.93;;;4.93;;
6485;SDS011;3276;48.490;9.222;2024-03-06T02:21:39;6.80;;;4.63;;
6485;SDS011;3276;48.490;9.222;2024-03-06T02:24:05;6.80;;;5.33;;
6485;SDS011;3276;48.490;9.222;2024-03-06T02:26:30;6.50;;;5.10;;
6485;SDS011;3276;48.490;9.222;2024-03-06T02:28:59;6.00;;;4.73;;
6485;SDS011;3276;48.490;9.222;2024-03-06T02:31:24;5.67;;;5.07;;
6485;SDS011;3276;48.490;9.222;2024-03-06T02:33:50;7.20;;;5.40;;
6485;SDS011;3276;48.490;9.222;2024-03-06T02:36:16;6.67;;;5.77;;
6485;SDS011;3276;48.490;9.222;2024-03-06T02:38:43;6.20;;;5.20;;
6485;SDS011;3276;48.490;9.222;2024-03-06T02:41:09;7.73;;;4.73;;
6485;SDS011;3276;48.490;9.222;2024-03-06T02:43:35;5.20;;;4.20;;
6485;SDS011;3276;48.490;9.222;2024-03-06T02:46:01;6.60;;;4.60;;
6485;SDS011;3276;48.490;9.222;2024-03-06T02:48:27;5.57;;;3.67;;
6485;SDS011;3276;48.490;9.222;2024-03-06T02:50:53;6.97;;;4.43;;
6485;SDS011;3276;48.490;9.222;2024-03-06T02:53:19;9.43;;;4.97;;
6485;SDS011;3276;48.490;9.222;2024-03-06T02:55:44;5.60;;;4.17;;
6485;SDS011;3276;48.490;9.222;2024-03-06T02:58:10;6.67;;;4.20;;
6485;SDS011;3276;48.490;9.222;2024-03-06T03:00:35;5.17;;;3.70;;
6485;SDS011;3276;48.490;9.222;2024-03-06T03:03:01;7.50;;;4.90;;
6485;SDS011;3276;48.490;9.222;2024-03-06T03:05:27;5.57;;;4.30;;
6485;SDS011;3276;48.490;9.222;2024-03-06T03:07:53;6.33;;;4.87;;
6485;SDS011;3276;48.490;9.222;2024-03-06T03:10:18;5.83;;;5.23;;
6485;SDS011;3276;48.490;9.222;2024-03-06T03:12:44;6.13;;;4.30;;
6485;SDS011;3276;48.490;9.222;2024-03-06T03:15:10;5.73;;;4.20;;
6485;SDS011;3276;48.490;9.222;2024-03-06T03:17:35;8.83;;;5.10;;
6485;SDS011;3276;48.490;9.222;2024-03-06T03:20:01;5.13;;;4.43;;
6485;SDS011;3276;48.490;9.222;2024-03-06T03:22:35;7.87;;;4.87;;
6485;SDS011;3276;48.490;9.222;2024-03-06T03:25:11;5.53;;;4.83;;
6485;SDS011;3276;48.490;9.222;2024-03-06T03:27:38;7.80;;;5.03;;
6485;SDS011;3276;48.490;9.222;2024-03-06T03:30:11;5.30;;;4.37;;
6485;SDS011;3276;48.490;9.222;2024-03-06T03:32:37;7.43;;;5.33;;
6485;SDS011;3276;48.490;9.222;2024-03-06T03:35:03;6.43;;;5.07;;
6485;SDS011;3276;48.490;9.222;2024-03-06T03:37:32;5.70;;;4.67;;
6485;SDS011;3276;48.490;9.222;2024-03-06T03:39:58;5.70;;;4.60;;
6485;SDS011;3276;48.490;9.222;2024-03-06T03:42:24;5.17;;;4.60;;
6485;SDS011;3276;48.490;9.222;2024-03-06T03:44:50;5.93;;;3.93;;
6485;SDS011;3276;48.490;9.222;2024-03-06T03:47:15;7.87;;;4.53;;
6485;SDS011;3276;48.490;9.222;2024-03-06T03:49:41;6.20;;;4.77;;
6485;SDS011;3276;48.490;9.222;2024-03-06T03:52:07;7.00;;;4.50;;
6485;SDS011;3276;48.490;9.222;2024-03-06T03:54:33;6.13;;;4.57;;
6485;SDS011;3276;48.490;9.222;2024-03-06T03:56:59;6.30;;;5.33;;
6485;SDS011;3276;48.490;9.222;2024-03-06T03:59:25;5.23;;;4.50;;
6485;SDS011;3276;48.490;9.222;2024-03-06T04:01:51;7.30;;;4.90;;
6485;SDS011;3276;48.490;9.222;2024-03-06T04:04:17;6.53;;;4.97;;
6485;SDS011;3276;48.490;9.222;2024-03-06T04:06:42;6.10;;;4.40;;
6485;SDS011;3276;48.490;9.222;2024-03-06T04:09:08;5.87;;;5.20;;
6485;SDS011;3276;48.490;9.222;2024-03-06T04:11:36;8.50;;;4.97;;
6485;SDS011;3276;48.490;9.222;2024-03-06T04:14:03;7.67;;;5.37;;
6485;SDS011;3276;48.490;9.222;2024-03-06T04:16:31;6.13;;;4.93;;
6485;SDS011;3276;48.490;9.222;2024-03-06T04:18:57;7.63;;;6.27;;
6485;SDS011;3276;48.490;9.222;2024-03-06T04:21:22;6.70;;;4.43;;
6485;SDS011;3276;48.490;9.222;2024-03-06T04:23:48;5.90;;;4.60;;
6485;SDS011;3276;48.490;9.222;2024-03-06T04:26:14;6.63;;;6.03;;
6485;SDS011;3276;48.490;9.222;2024-03-06T04:28:40;6.20;;;4.67;;
6485;SDS011;3276;48.490;9.222;2024-03-06T04:31:05;5.90;;;4.87;;
6485;SDS011;3276;48.490;9.222;2024-03-06T04:33:31;8.13;;;5.23;;
6485;SDS011;3276;48.490;9.222;2024-03-06T04:35:57;5.33;;;4.70;;
6485;SDS011;3276;48.490;9.222;2024-03-06T04:38:22;9.20;;;4.70;;
6485;SDS011;3276;48.490;9.222;2024-03-06T04:40:48;6.03;;;4.63;;
6485;SDS011;3276;48.490;9.222;2024-03-06T04:43:14;5.03;;;4.40;;
6485;SDS011;3276;48.490;9.222;2024-03-06T04:45:39;10.53;;;5.30;;
6485;SDS011;3276;48.490;9.222;2024-03-06T04:48:05;6.60;;;5.20;;
6485;SDS011;3276;48.490;9.222;2024-03-06T04:50:31;5.93;;;4.97;;
6485;SDS011;3276;48.490;9.222;2024-03-06T04:52:57;7.20;;;5.80;;
6485;SDS011;3276;48.490;9.222;2024-03-06T04:55:23;5.93;;;5.33;;
6485;SDS011;3276;48.490;9.222;2024-03-06T04:57:50;4.60;;;3.93;;
6485;SDS011;3276;48.490;9.222;2024-03-06T05:00:17;5.40;;;4.57;;
6485;SDS011;3276;48.490;9.222;2024-03-06T05:02:43;7.47;;;4.97;;
6485;SDS011;3276;48.490;9.222;2024-03-06T05:05:09;6.90;;;4.40;;
6485;SDS011;3276;48.490;9.222;2024-03-06T05:07:35;5.10;;;4.60;;
6485;SDS011;3276;48.490;9.222;2024-03-06T05:10:00;7.23;;;6.40;;
6485;SDS011;3276;48.490;9.222;2024-03-06T05:12:26;6.20;;;5.10;;
6485;SDS011;3276;48.490;9.222;2024-03-06T05:14:52;6.57;;;4.73;;
6485;SDS011;3276;48.490;9.222;2024-03-06T05:17:19;6.87;;;4.50;;
6485;SDS011;3276;48.490;9.222;2024-03-06T05:19:45;6.17;;;4.60;;
6485;SDS011;3276;48.490;9.222;2024-03-06T05:22:12;6.80;;;4.43;;
6485;SDS011;3276;48.490;9.222;2024-03-06T05:24:38;6.17;;;4.87;;
6485;SDS011;3276;48.490;9.222;2024-03-06T05:27:04;8.17;;;6.67;;
6485;SDS011;3276;48.490;9.222;2024-03-06T05:29:33;6.20;;;4.87;;
6485;SDS011;3276;48.490;9.222;2024-03-06T05:32:02;9.57;;;6.07;;
6485;SDS011;3276;48.490;9.222;2024-03-06T05:34:28;7.60;;;6.20;;
6485;SDS011;3276;48.490;9.222;2024-03-06T05:36:54;6.33;;;5.50;;
6485;SDS011;3276;48.490;9.222;2024-03-06T05:39:20;7.00;;;6.07;;
6485;SDS011;3276;48.490;9.222;2024-03-06T05:41:46;8.10;;;7.30;;
6485;SDS011;3276;48.490;9.222;2024-03-06T05:44:12;8.67;;;6.10;;
6485;SDS011;3276;48.490;9.222;2024-03-06T05:46:37;7.37;;;5.93;;
6485;SDS011;3276;48.490;9.222;2024-03-06T05:49:06;9.70;;;5.43;;
6485;SDS011;3276;48.490;9.222;2024-03-06T05:51:32;6.20;;;5.27;;
6485;SDS011;3276;48.490;9.222;2024-03-06T05:53:58;6.93;;;5.87;;
6485;SDS011;3276;48.490;9.222;2024-03-06T05:56:23;6.07;;;5.47;;
6485;SDS011;3276;48.490;9.222;2024-03-06T05:58:49;7.80;;;5.60;;
6485;SDS011;3276;48.490;9.222;2024-03-06T06:01:15;7.30;;;6.23;;
6485;SDS011;3276;48.490;9.222;2024-03-06T06:03:43;8.23;;;5.57;;
6485;SDS011;3276;48.490;9.222;2024-03-06T06:06:09;11.10;;;5.90;;
6485;SDS011;3276;48.490;9.222;2024-03-06T06:08:38;6.40;;;4.90;;
6485;SDS011;3276;48.490;9.222;2024-03-06T06:11:03;7.53;;;5.40;;
6485;SDS011;3276;48.490;9.222;2024-03-06T06:13:29;6.50;;;4.80;;
6485;SDS011;3276;48.490;9.222;2024-03-06T06:15:57;8.30;;;4.77;;
6485;SDS011;3276;48.490;9.222;2024-03-06T06:18:23;8.30;;;5.87;;
6485;SDS011;3276;48.490;9.222;2024-03-06T06:20:48;9.00;;;5.33;;
6485;SDS011;3276;48.490;9.222;2024-03-06T06:23:14;5.43;;;4.83;;
6485;SDS011;3276;48.490;9.222;2024-03-06T06:25:40;7.23;;;4.43;;
6485;SDS011;3276;48.490;9.222;2024-03-06T06:28:05;8.80;;;5.80;;
6485;SDS011;3276;48.490;9.222;2024-03-06T06:30:35;8.93;;;5.83;;
6485;SDS011;3276;48.490;9.222;2024-03-06T06:33:04;6.73;;;4.80;;
6485;SDS011;3276;48.490;9.222;2024-03-06T06:35:30;14.03;;;5.53;;
6485;SDS011;3276;48.490;9.222;2024-03-06T06:37:56;8.00;;;5.93;;
6485;SDS011;3276;48.490;9.222;2024-03-06T06:40:21;6.30;;;5.70;;
6485;SDS011;3276;48.490;9.222;2024-03-06T06:42:47;6.03;;;4.73;;
6485;SDS011;3276;48.490;9.222;2024-03-06T06:45:17;7.47;;;5.70;;
6485;SDS011;3276;48.490;9.222;2024-03-06T06:47:43;6.23;;;5.63;;
6485;SDS011;3276;48.490;9.222;2024-03-06T06:50:09;9.97;;;5.73;;
6485;SDS011;3276;48.490;9.222;2024-03-06T06:52:39;7.40;;;6.60;;
6485;SDS011;3276;48.490;9.222;2024-03-06T06:55:05;7.87;;;5.57;;
6485;SDS011;3276;48.490;9.222;2024-03-06T06:57:32;7.00;;;5.47;;
6485;SDS011;3276;48.490;9.222;2024-03-06T07:00:04;5.60;;;5.00;;
6485;SDS011;3276;48.490;9.222;2024-03-06T07:02:41;7.43;;;5.33;;
6485;SDS011;3276;48.490;9.222;2024-03-06T07:05:07;8.83;;;6.03;;
6485;SDS011;3276;48.490;9.222;2024-03-06T07:07:35;7.93;;;5.60;;
6485;SDS011;3276;48.490;9.222;2024-03-06T07:10:02;6.60;;;5.23;;
6485;SDS011;3276;48.490;9.222;2024-03-06T07:12:28;8.23;;;5.67;;
6485;SDS011;3276;48.490;9.222;2024-03-06T07:14:54;7.97;;;4.93;;
6485;SDS011;3276;48.490;9.222;2024-03-06T07:17:21;5.77;;;4.67;;
6485;SDS011;3276;48.490;9.222;2024-03-06T07:19:47;8.50;;;5.87;;
6485;SDS011;3276;48.490;9.222;2024-03-06T07:22:12;6.80;;;4.93;;
6485;SDS011;3276;48.490;9.222;2024-03-06T07:24:38;5.93;;;5.07;;
6485;SDS011;3276;48.490;9.222;2024-03-06T07:27:04;7.17;;;5.33;;
6485;SDS011;3276;48.490;9.222;2024-03-06T07:29:30;6.70;;;4.83;;
6485;SDS011;3276;48.490;9.222;2024-03-06T07:31:55;6.73;;;5.10;;
6485;SDS011;3276;48.490;9.222;2024-03-06T07:34:21;9.40;;;5.03;;
6485;SDS011;3276;48.490;9.222;2024-03-06T07:36:47;6.57;;;4.43;;
6485;SDS011;3276;48.490;9.222;2024-03-06T07:39:16;10.23;;;6.00;;
6485;SDS011;3276;48.490;9.222;2024-03-06T07:41:41;7.30;;;5.07;;
6485;SDS011;3276;48.490;9.222;2024-03-06T07:44:08;7.07;;;5.93;;
6485;SDS011;3276;48.490;9.222;2024-03-06T07:46:36;7.47;;;4.30;;
6485;SDS011;3276;48.490;9.222;2024-03-06T07:49:02;10.33;;;6.33;;
6485;SDS011;3276;48.490;9.222;2024-03-06T07:51:30;10.53;;;6.23;;
6485;SDS011;3276;48.490;9.222;2024-03-06T07:53:57;8.50;;;5.93;;
6485;SDS011;3276;48.490;9.222;2024-03-06T07:56:23;6.70;;;5.10;;
6485;SDS011;3276;48.490;9.222;2024-03-06T07:58:53;6.53;;;5.87;;
6485;SDS011;3276;48.490;9.222;2024-03-06T08:01:19;7.97;;;5.77;;
6485;SDS011;3276;48.490;9.222;2024-03-06T08:03:46;6.83;;;5.20;;
6485;SDS011;3276;48.490;9.222;2024-03-06T08:06:11;6.20;;;5.57;;
6485;SDS011;3276;48.490;9.222;2024-03-06T08:08:40;8.27;;;5.70;;
6485;SDS011;3276;48.490;9.222;2024-03-06T08:11:06;6.80;;;5.27;;
6485;SDS011;3276;48.490;9.222;2024-03-06T08:13:35;6.23;;;4.90;;
6485;SDS011;3276;48.490;9.222;2024-03-06T08:16:01;6.70;;;4.43;;
6485;SDS011;3276;48.490;9.222;2024-03-06T08:18:26;8.20;;;5.40;;
6485;SDS011;3276;48.490;9.222;2024-03-06T08:20:52;8.00;;;5.53;;
6485;SDS011;3276;48.490;9.222;2024-03-06T08:23:18;15.93;;;4.80;;
6485;SDS011;3276;48.490;9.222;2024-03-06T08:25:43;8.23;;;5.50;;
6485;SDS011;3276;48.490;9.222;2024-03-06T08:28:09;8.67;;;6.30;;
6485;SDS011;3276;48.490;9.222;2024-03-06T08:30:35;10.00;;;5.27;;
6485;SDS011;3276;48.490;9.222;2024-03-06T08:33:00;9.73;;;5.90;;
6485;SDS011;3276;48.490;9.222;2024-03-06T08:35:26;8.50;;;6.00;;
6485;SDS011;3276;48.490;9.222;2024-03-06T08:37:51;7.60;;;5.37;;
6485;SDS011;3276;48.490;9.222;2024-03-06T08:40:17;6.00;;;5.40;;
6485;SDS011;3276;48.490;9.222;2024-03-06T08:42:46;6.80;;;6.03;;
6485;SDS011;3276;48.490;9.222;2024-03-06T08:45:12;7.53;;;5.50;;
6485;SDS011;3276;48.490;9.222;2024-03-06T08:47:39;8.63;;;4.90;;
6485;SDS011;3276;48.490;9.222;2024-03-06T08:50:06;8.13;;;5.83;;
6485;SDS011;3276;48.490;9.222;2024-03-06T08:52:34;6.47;;;5.47;;
6485;SDS011;3276;48.490;9.222;2024-03-06T08:55:00;7.80;;;6.00;;
6485;SDS011;3276;48.490;9.222;2024-03-06T08:57:29;10.93;;;6.60;;
6485;SDS011;3276;48.490;9.222;2024-03-06T08:59:56;7.93;;;6.23;;
6485;SDS011;3276;48.490;9.222;2024-03-06T09:02:22;7.70;;;6.50;;
6485;SDS011;3276;48.490;9.222;2024-03-06T09:04:47;11.20;;;6.10;;
6485;SDS011;3276;48.490;9.222;2024-03-06T09:07:13;6.90;;;5.17;;
6485;SDS011;3276;48.490;9.222;2024-03-06T09:09:39;12.10;;;6.77;;
6485;SDS011;3276;48.490;9.222;2024-03-06T09:12:06;7.33;;;6.33;;
6485;SDS011;3276;48.490;9.222;2024-03-06T09:14:35;7.10;;;6.00;;
6485;SDS011;3276;48.490;9.222;2024-03-06T09:17:01;10.17;;;7.27;;
6485;SDS011;3276;48.490;9.222;2024-03-06T09:19:27;8.50;;;7.10;;
6485;SDS011;3276;48.490;9.222;2024-03-06T09:21:53;7.47;;;6.70;;
6485;SDS011;3276;48.490;9.222;2024-03-06T09:24:22;7.97;;;6.10;;
6485;SDS011;3276;48.490;9.222;2024-03-06T09:26:48;7.43;;;6.17;;
6485;SDS011;3276;48.490;9.222;2024-03-06T09:29:15;6.97;;;6.27;;
6485;SDS011;3276;48.490;9.222;2024-03-06T09:31:41;9.07;;;6.80;;
6485;SDS011;3276;48.490;9.222;2024-03-06T09:34:07;7.90;;;6.50;;
6485;SDS011;3276;48.490;9.222;2024-03-06T09:36:37;11.23;;;6.80;;
6485;SDS011;3276;48.490;9.222;2024-03-06T09:39:09;10.43;;;7.13;;
6485;SDS011;3276;48.490;9.222;2024-03-06T09:41:43;9.43;;;7.00;;
6485;SDS011;3276;48.490;9.222;2024-03-06T09:44:09;8.73;;;6.97;;
6485;SDS011;3276;48.490;9.222;2024-03-06T09:46:35;10.30;;;6.07;;
6485;SDS011;3276;48.490;9.222;2024-03-06T09:49:01;8.60;;;6.20;;
6485;SDS011;3276;48.490;9.222;2024-03-06T09:51:28;8.13;;;6.63;;
6485;SDS011;3276;48.490;9.222;2024-03-06T09:53:53;8.80;;;6.90;;
6485;SDS011;3276;48.490;9.222;2024-03-06T09:56:19;6.83;;;6.10;;
6485;SDS011;3276;48.490;9.222;2024-03-06T09:58:45;9.43;;;7.53;;
6485;SDS011;3276;48.490;9.222;2024-03-06T10:01:12;8.93;;;6.80;;
6485;SDS011;3276;48.490;9.222;2024-03-06T10:03:39;10.17;;;6.47;;
6485;SDS011;3276;48.490;9.222;2024-03-06T10:06:08;13.27;;;6.70;;
6485;SDS011;3276;48.490;9.222;2024-03-06T10:08:34;8.17;;;5.93;;
6485;SDS011;3276;48.490;9.222;2024-03-06T10:11:02;7.50;;;5.80;;
6485;SDS011;3276;48.490;9.222;2024-03-06T10:13:28;9.63;;;6.07;;
6485;SDS011;3276;48.490;9.222;2024-03-06T10:15:57;7.80;;;5.97;;
6485;SDS011;3276;48.490;9.222;2024-03-06T10:18:26;8.93;;;6.63;;
6485;SDS011;3276;48.490;9.222;2024-03-06T10:20:53;9.13;;;6.37;;
6485;SDS011;3276;48.490;9.222;2024-03-06T10:23:18;7.97;;;5.23;;
6485;SDS011;3276;48.490;9.222;2024-03-06T10:25:45;9.47;;;6.73;;
6485;SDS011;3276;48.490;9.222;2024-03-06T10:28:15;6.63;;;5.40;;
6485;SDS011;3276;48.490;9.222;2024-03-06T10:30:42;11.20;;;6.03;;
6485;SDS011;3276;48.490;9.222;2024-03-06T10:33:08;10.30;;;6.93;;
6485;SDS011;3276;48.490;9.222;2024-03-06T10:35:35;7.40;;;6.10;;
6485;SDS011;3276;48.490;9.222;2024-03-06T10:38:04;6.53;;;5.83;;
6485;SDS011;3276;48.490;9.222;2024-03-06T10:40:30;11.40;;;6.57;;
6485;SDS011;3276;48.490;9.222;2024-03-06T10:42:58;10.37;;;7.00;;
6485;SDS011;3276;48.490;9.222;2024-03-06T10:45:27;13.27;;;6.97;;
6485;SDS011;3276;48.490;9.222;2024-03-06T10:48:02;7.30;;;6.57;;
6485;SDS011;3276;48.490;9.222;2024-03-06T10:50:29;10.10;;;7.00;;
6485;SDS011;3276;48.490;9.222;2024-03-06T10:52:56;9.97;;;6.87;;
6485;SDS011;3276;48.490;9.222;2024-03-06T10:55:22;10.93;;;6.27;;
6485;SDS011;3276;48.490;9.222;2024-03-06T10:57:49;14.97;;;8.13;;
6485;SDS011;3276;48.490;9.222;2024-03-06T11:00:18;7.47;;;5.80;;
6485;SDS011;3276;48.490;9.222;2024-03-06T11:02:47;9.57;;;7.40;;
6485;SDS011;3276;48.490;9.222;2024-03-06T11:05:14;7.97;;;6.80;;
6485;SDS011;3276;48.490;9.222;2024-03-06T11:07:40;7.67;;;6.87;;
6485;SDS011;3276;48.490;9.222;2024-03-06T11:10:06;10.77;;;7.67;;
6485;SDS011;3276;48.490;9.222;2024-03-06T11:12:38;7.80;;;7.00;;
6485;SDS011;3276;48.490;9.222;2024-03-06T11:15:13;10.03;;;7.10;;
6485;SDS011;3276;48.490;9.222;2024-03-06T11:17:40;11.83;;;8.30;;
6485;SDS011;3276;48.490;9.222;2024-03-06T11:20:08;8.77;;;6.77;;
6485;SDS011;3276;48.490;9.222;2024-03-06T11:28:10;9.87;;;7.33;;
6485;SDS011;3276;48.490;9.222;2024-03-06T11:33:35;10.07;;;7.43;;
6485;SDS011;3276;48.490;9.222;2024-03-06T11:38:59;10.43;;;8.63;;
6485;SDS011;3276;48.490;9.222;2024-03-06T11:41:33;12.30;;;9.17;;
6485;SDS011;3276;48.490;9.222;2024-03-06T11:44:12;8.90;;;7.00;;
6485;SDS011;3276;48.490;9.222;2024-03-06T11:46:47;9.93;;;7.43;;
6485;SDS011;3276;48.490;9.222;2024-03-06T11:51:54;10.77;;;7.80;;
6485;SDS011;3276;48.490;9.222;2024-03-06T11:54:22;11.33;;;8.70;;
6485;SDS011;3276;48.490;9.222;2024-03-06T11:56:49;8.90;;;7.17;;
6485;SDS011;3276;48.490;9.222;2024-03-06T11:59:16;9.77;;;8.30;;
6485;SDS011;3276;48.490;9.222;2024-03-06T12:01:42;9.90;;;8.80;;
6485;SDS011;3276;48.490;9.222;2024-03-06T12:04:09;12.03;;;8.23;;
6485;SDS011;3276;48.490;9.222;2024-03-06T12:06:34;12.63;;;8.23;;
6485;SDS011;3276;48.490;9.222;2024-03-06T12:09:00;11.30;;;7.80;;
6485;SDS011;3276;48.490;9.222;2024-03-06T12:11:26;10.27;;;8.40;;
6485;SDS011;3276;48.490;9.222;2024-03-06T12:13:53;11.00;;;9.47;;
6485;SDS011;3276;48.490;9.222;2024-03-06T12:16:19;12.77;;;8.00;;
6485;SDS011;3276;48.490;9.222;2024-03-06T12:18:45;13.00;;;8.50;;
6485;SDS011;3276;48.490;9.222;2024-03-06T12:21:11;15.70;;;9.27;;
6485;SDS011;3276;48.490;9.222;2024-03-06T12:23:38;14.17;;;9.07;;
6485;SDS011;3276;48.490;9.222;2024-03-06T12:26:07;9.73;;;7.67;;
6485;SDS011;3276;48.490;9.222;2024-03-06T12:28:35;10.97;;;8.50;;
6485;SDS011;3276;48.490;9.222;2024-03-06T12:31:02;11.17;;;8.70;;
6485;SDS011;3276;48.490;9.222;2024-03-06T12:33:28;15.60;;;10.30;;
6485;SDS011;3276;48.490;9.222;2024-03-06T12:36:06;14.27;;;8.00;;
6485;SDS011;3276;48.490;9.222;2024-03-06T12:38:35;11.70;;;8.83;;
6485;SDS011;3276;48.490;9.222;2024-03-06T12:41:01;11.77;;;9.00;;
6485;SDS011;3276;48.490;9.222;2024-03-06T12:43:27;14.63;;;9.67;;
6485;SDS011;3276;48.490;9.222;2024-03-06T12:45:56;10.87;;;8.70;;
6485;SDS011;3276;48.490;9.222;2024-03-06T12:48:22;12.13;;;9.13;;
6485;SDS011;3276;48.490;9.222;2024-03-06T12:50:48;13.20;;;9.03;;
6485;SDS011;3276;48.490;9.222;2024-03-06T12:53:19;9.90;;;8.20;;
6485;SDS011;3276;48.490;9.222;2024-03-06T12:55:45;10.00;;;9.00;;
6485;SDS011;3276;48.490;9.222;2024-03-06T12:58:11;13.60;;;9.50;;
6485;SDS011;3276;48.490;9.222;2024-03-06T13:00:37;12.00;;;9.10;;
6485;SDS011;3276;48.490;9.222;2024-03-06T13:03:03;12.60;;;8.70;;
6485;SDS011;3276;48.490;9.222;2024-03-06T13:05:29;11.30;;;9.77;;
6485;SDS011;3276;48.490;9.222;2024-03-06T13:07:56;12.43;;;7.97;;
6485;SDS011;3276;48.490;9.222;2024-03-06T13:10:22;10.37;;;7.33;;
6485;SDS011;3276;48.490;9.222;2024-03-06T13:12:47;13.67;;;10.07;;
6485;SDS011;3276;48.490;9.222;2024-03-06T13:15:13;10.30;;;8.47;;
6485;SDS011;3276;48.490;9.222;2024-03-06T13:17:38;13.20;;;10.90;;
6485;SDS011;3276;48.490;9.222;2024-03-06T13:20:07;14.33;;;10.00;;
6485;SDS011;3276;48.490;9.222;2024-03-06T13:22:34;15.30;;;10.77;;
6485;SDS011;3276;48.490;9.222;2024-03-06T13:25:00;12.40;;;9.87;;
6485;SDS011;3276;48.490;9.222;2024-03-06T13:27:26;18.20;;;11.27;;
6485;SDS011;3276;48.490;9.222;2024-03-06T13:29:52;14.60;;;10.60;;
6485;SDS011;3276;48.490;9.222;2024-03-06T13:32:18;13.07;;;10.30;;
6485;SDS011;3276;48.490;9.222;2024-03-06T13:34:44;12.47;;;10.53;;
6485;SDS011;3276;48.490;9.222;2024-03-06T13:37:09;16.37;;;10.60;;
6485;SDS011;3276;48.490;9.222;2024-03-06T13:39:35;11.97;;;9.60;;
6485;SDS011;3276;48.490;9.222;2024-03-06T13:42:01;14.40;;;10.67;;
6485;SDS011;3276;48.490;9.222;2024-03-06T13:44:27;12.87;;;10.67;;
6485;SDS011;3276;48.490;9.222;2024-03-06T13:46:53;13.17;;;10.70;;
6485;SDS011;3276;48.490;9.222;2024-03-06T13:49:34;17.77;;;10.30;;
6485;SDS011;3276;48.490;9.222;2024-03-06T13:52:07;36.47;;;14.40;;
6485;SDS011;3276;48.490;9.222;2024-03-06T13:54:35;48.57;;;16.90;;
6485;SDS011;3276;48.490;9.222;2024-03-06T13:57:03;26.63;;;12.87;;
6485;SDS011;3276;48.490;9.222;2024-03-06T13:59:32;64.70;;;17.80;;
6485;SDS011;3276;48.490;9.222;2024-03-06T14:01:58;14.70;;;10.90;;
6485;SDS011;3276;48.490;9.222;2024-03-06T14:04:25;14.90;;;10.50;;
6485;SDS011;3276;48.490;9.222;2024-03-06T14:06:51;38.73;;;16.80;;
6485;SDS011;3276;48.490;9.222;2024-03-06T14:09:17;14.97;;;10.03;;
6485;SDS011;3276;48.490;9.222;2024-03-06T14:11:43;18.13;;;11.93;;
6485;SDS011;3276;48.490;9.222;2024-03-06T14:14:09;14.80;;;9.80;;
6485;SDS011;3276;48.490;9.222;2024-03-06T14:16:36;17.90;;;12.37;;
6485;SDS011;3276;48.490;9.222;2024-03-06T14:19:02;25.50;;;13.27;;
6485;SDS011;3276;48.490;9.222;2024-03-06T14:21:29;15.10;;;10.80;;
6485;SDS011;3276;48.490;9.222;2024-03-06T14:23:56;22.03;;;12.60;;
6485;SDS011;3276;48.490;9.222;2024-03-06T14:26:23;18.83;;;12.07;;
6485;SDS011;3276;48.490;9.222;2024-03-06T14:28:49;23.40;;;14.80;;
6485;SDS011;3276;48.490;9.222;2024-03-06T14:31:15;19.20;;;12.70;;
6485;SDS011;3276;48.490;9.222;2024-03-06T14:33:46;31.20;;;12.10;;
6485;SDS011;3276;48.490;9.222;2024-03-06T14:36:13;13.13;;;9.77;;
6485;SDS011;3276;48.490;9.222;2024-03-06T14:38:39;16.23;;;10.60;;
6485;SDS011;3276;48.490;9.222;2024-03-06T14:41:05;16.20;;;11.53;;
6485;SDS011;3276;48.490;9.222;2024-03-06T14:43:32;15.30;;;10.73;;
6485;SDS011;3276;48.490;9.222;2024-03-06T14:46:03;16.90;;;11.30;;
6485;SDS011;3276;48.490;9.222;2024-03-06T14:48:29;22.07;;;14.43;;
6485;SDS011;3276;48.490;9.222;2024-03-06T14:50:55;16.43;;;11.57;;
6485;SDS011;3276;48.490;9.222;2024-03-06T14:53:20;21.83;;;14.23;;
6485;SDS011;3276;48.490;9.222;2024-03-06T14:55:46;24.23;;;13.33;;
6485;SDS011;3276;48.490;9.222;2024-03-06T14:58:13;45.87;;;19.73;;
6485;SDS011;3276;48.490;9.222;2024-03-06T15:00:39;38.77;;;17.13;;
6485;SDS011;3276;48.490;9.222;2024-03-06T15:03:04;14.67;;;11.17;;
6485;SDS011;3276;48.490;9.222;2024-03-06T15:05:31;18.90;;;12.60;;
6485;SDS011;3276;48.490;9.222;2024-03-06T15:07:59;23.07;;;14.30;;
6485;SDS011;3276;48.490;9.222;2024-03-06T15:10:25;18.47;;;12.50;;
6485;SDS011;3276;48.490;9.222;2024-03-06T15:12:51;29.73;;;16.20;;
6485;SDS011;3276;48.490;9.222;2024-03-06T15:15:16;19.00;;;12.10;;
6485;SDS011;3276;48.490;9.222;2024-03-06T15:17:42;23.50;;;13.03;;
6485;SDS011;3276;48.490;9.222;2024-03-06T15:20:09;22.17;;;14.00;;